sensor_id;sensor_type;location;lat;lon;timestamp;pressure;altitude;pressure_sealevel;temperature
15575;BMP180;7888;46.748;8.102;2023-03-15T00:00:54;93644.00;;;10.20
15575;BMP180;7888;46.748;8.102;2023-03-15T00:03:21;93656.00;;;10.10
15575;BMP180;7888;46.748;8.102;2023-03-15T00:05:49;93669.00;;;10.10
15575;BMP180;7888;46.748;8.102;2023-03-15T00:08:17;93654.00;;;10.00
15575;BMP180;7888;46.748;8.102;2023-03-15T00:10:45;93653.00;;;9.90
15575;BMP180;7888;46.748;8.102;2023-03-15T00:13:13;93645.00;;;9.90
15575;BMP180;7888;46.748;8.102;2023-03-15T00:15:49;93658.00;;;9.90
15575;BMP180;7888;46.748;8.102;2023-03-15T00:18:17;93682.00;;;9.80
15575;BMP180;7888;46.748;8.102;2023-03-15T00:20:43;93636.00;;;9.80
15575;BMP180;7888;46.748;8.102;2023-03-15T00:23:10;93658.00;;;9.70
15575;BMP180;7888;46.748;8.102;2023-03-15T00:25:36;93660.00;;;9.70
15575;BMP180;7888;46.748;8.102;2023-03-15T00:28:02;93677.00;;;9.60
15575;BMP180;7888;46.748;8.102;2023-03-15T00:30:28;93681.00;;;9.50
15575;BMP180;7888;46.748;8.102;2023-03-15T00:32:54;93632.00;;;9.40
15575;BMP180;7888;46.748;8.102;2023-03-15T00:35:21;93656.00;;;9.30
15575;BMP180;7888;46.748;8.102;2023-03-15T00:37:52;93659.00;;;9.20
15575;BMP180;7888;46.748;8.102;2023-03-15T00:40:19;93675.00;;;9.10
15575;BMP180;7888;46.748;8.102;2023-03-15T00:42:45;93660.00;;;9.10
15575;BMP180;7888;46.748;8.102;2023-03-15T00:45:19;93660.00;;;9.00
15575;BMP180;7888;46.748;8.102;2023-03-15T00:47:53;93677.00;;;9.00
15575;BMP180;7888;46.748;8.102;2023-03-15T00:50:21;93680.00;;;9.10
15575;BMP180;7888;46.748;8.102;2023-03-15T00:52:47;93673.00;;;9.10
15575;BMP180;7888;46.748;8.102;2023-03-15T00:55:17;93666.00;;;9.00
15575;BMP180;7888;46.748;8.102;2023-03-15T00:57:45;93688.00;;;9.10
15575;BMP180;7888;46.748;8.102;2023-03-15T01:00:20;93647.00;;;9.10
15575;BMP180;7888;46.748;8.102;2023-03-15T01:02:53;93673.00;;;9.20
15575;BMP180;7888;46.748;8.102;2023-03-15T01:05:19;93659.00;;;9.20
15575;BMP180;7888;46.748;8.102;2023-03-15T01:07:46;93680.00;;;9.20
15575;BMP180;7888;46.748;8.102;2023-03-15T01:10:14;93689.00;;;9.20
15575;BMP180;7888;46.748;8.102;2023-03-15T01:12:41;93676.00;;;9.30
15575;BMP180;7888;46.748;8.102;2023-03-15T01:15:10;93687.00;;;9.30
15575;BMP180;7888;46.748;8.102;2023-03-15T01:17:36;93676.00;;;9.30
15575;BMP180;7888;46.748;8.102;2023-03-15T01:20:03;93698.00;;;9.30
15575;BMP180;7888;46.748;8.102;2023-03-15T01:22:30;93697.00;;;9.30
15575;BMP180;7888;46.748;8.102;2023-03-15T01:24:56;93705.00;;;9.30
15575;BMP180;7888;46.748;8.102;2023-03-15T01:27:22;93703.00;;;9.40
15575;BMP180;7888;46.748;8.102;2023-03-15T01:29:47;93690.00;;;9.30
15575;BMP180;7888;46.748;8.102;2023-03-15T01:32:13;93692.00;;;9.30
15575;BMP180;7888;46.748;8.102;2023-03-15T01:34:39;93682.00;;;9.20
15575;BMP180;7888;46.748;8.102;2023-03-15T01:37:05;93684.00;;;9.20
15575;BMP180;7888;46.748;8.102;2023-03-15T01:39:31;93691.00;;;9.20
15575;BMP180;7888;46.748;8.102;2023-03-15T01:41:57;93671.00;;;9.10
15575;BMP180;7888;46.748;8.102;2023-03-15T01:44:23;93716.00;;;9.10
15575;BMP180;7888;46.748;8.102;2023-03-15T01:46:49;93711.00;;;9.20
15575;BMP180;7888;46.748;8.102;2023-03-15T01:49:28;93721.00;;;9.10
15575;BMP180;7888;46.748;8.102;2023-03-15T01:52:09;93736.00;;;9.10
15575;BMP180;7888;46.748;8.102;2023-03-15T01:57:31;93759.00;;;9.30
15575;BMP180;7888;46.748;8.102;2023-03-15T02:00:15;93776.00;;;9.30
15575;BMP180;7888;46.748;8.102;2023-03-15T02:02:57;93790.00;;;9.30
15575;BMP180;7888;46.748;8.102;2023-03-15T02:05:33;93812.00;;;9.20
15575;BMP180;7888;46.748;8.102;2023-03-15T02:08:01;93817.00;;;9.10
15575;BMP180;7888;46.748;8.102;2023-03-15T02:10:39;93832.00;;;9.10
15575;BMP180;7888;46.748;8.102;2023-03-15T02:13:07;93834.00;;;9.00
15575;BMP180;7888;46.748;8.102;2023-03-15T02:15:32;93817.00;;;9.10
15575;BMP180;7888;46.748;8.102;2023-03-15T02:17:58;93822.00;;;9.00
15575;BMP180;7888;46.748;8.102;2023-03-15T02:23:22;93802.00;;;8.90
15575;BMP180;7888;46.748;8.102;2023-03-15T02:26:23;93830.00;;;8.90
15575;BMP180;7888;46.748;8.102;2023-03-15T02:28:47;93832.00;;;8.90
15575;BMP180;7888;46.748;8.102;2023-03-15T02:31:14;93838.00;;;8.90
15575;BMP180;7888;46.748;8.102;2023-03-15T02:33:50;93813.00;;;8.80
15575;BMP180;7888;46.748;8.102;2023-03-15T02:36:19;93820.00;;;8.80
15575;BMP180;7888;46.748;8.102;2023-03-15T02:38:47;93838.00;;;8.80
15575;BMP180;7888;46.748;8.102;2023-03-15T02:41:20;93835.00;;;8.70
15575;BMP180;7888;46.748;8.102;2023-03-15T02:43:48;93862.00;;;8.50
15575;BMP180;7888;46.748;8.102;2023-03-15T02:46:17;93852.00;;;8.70
15575;BMP180;7888;46.748;8.102;2023-03-15T02:48:44;93857.00;;;8.70
15575;BMP180;7888;46.748;8.102;2023-03-15T02:51:23;93847.00;;;8.60
15575;BMP180;7888;46.748;8.102;2023-03-15T02:53:51;93843.00;;;8.50
15575;BMP180;7888;46.748;8.102;2023-03-15T02:56:17;93854.00;;;8.50
15575;BMP180;7888;46.748;8.102;2023-03-15T02:58:43;93853.00;;;8.40
15575;BMP180;7888;46.748;8.102;2023-03-15T03:01:13;93858.00;;;8.40
15575;BMP180;7888;46.748;8.102;2023-03-15T03:03:41;93868.00;;;8.30
15575;BMP180;7888;46.748;8.102;2023-03-15T03:06:08;93865.00;;;8.30
15575;BMP180;7888;46.748;8.102;2023-03-15T03:08:34;93867.00;;;8.20
15575;BMP180;7888;46.748;8.102;2023-03-15T03:11:00;93864.00;;;8.30
15575;BMP180;7888;46.748;8.102;2023-03-15T03:13:26;93865.00;;;8.30
15575;BMP180;7888;46.748;8.102;2023-03-15T03:15:51;93868.00;;;8.30
15575;BMP180;7888;46.748;8.102;2023-03-15T03:18:31;93865.00;;;8.30
15575;BMP180;7888;46.748;8.102;2023-03-15T03:21:06;93880.00;;;8.30
15575;BMP180;7888;46.748;8.102;2023-03-15T03:23:34;93870.00;;;8.20
15575;BMP180;7888;46.748;8.102;2023-03-15T03:26:01;93881.00;;;8.30
15575;BMP180;7888;46.748;8.102;2023-03-15T03:28:31;93891.00;;;8.40
15575;BMP180;7888;46.748;8.102;2023-03-15T03:30:57;93871.00;;;8.40
15575;BMP180;7888;46.748;8.102;2023-03-15T03:33:24;93886.00;;;8.40
15575;BMP180;7888;46.748;8.102;2023-03-15T03:35:50;93875.00;;;8.40
15575;BMP180;7888;46.748;8.102;2023-03-15T03:38:16;93886.00;;;8.40
15575;BMP180;7888;46.748;8.102;2023-03-15T03:40:42;93908.00;;;8.50
15575;BMP180;7888;46.748;8.102;2023-03-15T03:43:08;93912.00;;;8.50
15575;BMP180;7888;46.748;8.102;2023-03-15T03:45:35;93905.00;;;8.50
15575;BMP180;7888;46.748;8.102;2023-03-15T03:48:01;93894.00;;;8.50
15575;BMP180;7888;46.748;8.102;2023-03-15T03:50:27;93913.00;;;8.50
15575;BMP180;7888;46.748;8.102;2023-03-15T03:52:53;93911.00;;;8.60
15575;BMP180;7888;46.748;8.102;2023-03-15T03:55:19;93909.00;;;8.60
15575;BMP180;7888;46.748;8.102;2023-03-15T03:57:50;93927.00;;;8.60
15575;BMP180;7888;46.748;8.102;2023-03-15T04:00:18;93914.00;;;8.60
15575;BMP180;7888;46.748;8.102;2023-03-15T04:02:43;93924.00;;;8.60
15575;BMP180;7888;46.748;8.102;2023-03-15T04:05:10;93912.00;;;8.60
15575;BMP180;7888;46.748;8.102;2023-03-15T04:07:37;93921.00;;;8.60
15575;BMP180;7888;46.748;8.102;2023-03-15T04:10:04;93906.00;;;8.60
15575;BMP180;7888;46.748;8.102;2023-03-15T04:12:31;93919.00;;;8.60
15575;BMP180;7888;46.748;8.102;2023-03-15T04:14:57;93907.00;;;8.50
15575;BMP180;7888;46.748;8.102;2023-03-15T04:17:22;93907.00;;;8.50
15575;BMP180;7888;46.748;8.102;2023-03-15T04:19:48;93925.00;;;8.50
15575;BMP180;7888;46.748;8.102;2023-03-15T04:22:14;93903.00;;;8.50
15575;BMP180;7888;46.748;8.102;2023-03-15T04:24:41;93927.00;;;8.50
15575;BMP180;7888;46.748;8.102;2023-03-15T04:27:07;93908.00;;;8.40
15575;BMP180;7888;46.748;8.102;2023-03-15T04:29:33;93928.00;;;8.40
15575;BMP180;7888;46.748;8.102;2023-03-15T04:31:59;93927.00;;;8.30
15575;BMP180;7888;46.748;8.102;2023-03-15T04:34:30;93926.00;;;8.30
15575;BMP180;7888;46.748;8.102;2023-03-15T04:36:56;93905.00;;;8.20
15575;BMP180;7888;46.748;8.102;2023-03-15T04:39:22;93940.00;;;8.20
15575;BMP180;7888;46.748;8.102;2023-03-15T04:41:49;93929.00;;;8.20
15575;BMP180;7888;46.748;8.102;2023-03-15T04:44:15;93925.00;;;8.20
15575;BMP180;7888;46.748;8.102;2023-03-15T04:46:44;93936.00;;;8.20
15575;BMP180;7888;46.748;8.102;2023-03-15T04:49:11;93953.00;;;8.20
15575;BMP180;7888;46.748;8.102;2023-03-15T04:51:36;93938.00;;;8.20
15575;BMP180;7888;46.748;8.102;2023-03-15T04:54:02;93951.00;;;8.20
15575;BMP180;7888;46.748;8.102;2023-03-15T04:56:29;93922.00;;;8.10
15575;BMP180;7888;46.748;8.102;2023-03-15T04:58:55;93948.00;;;8.20
15575;BMP180;7888;46.748;8.102;2023-03-15T05:01:28;93943.00;;;8.10
15575;BMP180;7888;46.748;8.102;2023-03-15T05:03:55;93945.00;;;8.10
15575;BMP180;7888;46.748;8.102;2023-03-15T05:06:21;93942.00;;;8.00
15575;BMP180;7888;46.748;8.102;2023-03-15T05:08:47;93950.00;;;8.00
15575;BMP180;7888;46.748;8.102;2023-03-15T05:11:13;93967.00;;;8.00
15575;BMP180;7888;46.748;8.102;2023-03-15T05:13:39;93934.00;;;8.00
15575;BMP180;7888;46.748;8.102;2023-03-15T05:16:05;93960.00;;;8.00
15575;BMP180;7888;46.748;8.102;2023-03-15T05:18:31;93960.00;;;7.90
15575;BMP180;7888;46.748;8.102;2023-03-15T05:20:57;93964.00;;;7.90
15575;BMP180;7888;46.748;8.102;2023-03-15T05:23:24;93967.00;;;7.90
15575;BMP180;7888;46.748;8.102;2023-03-15T05:25:54;93979.00;;;7.80
15575;BMP180;7888;46.748;8.102;2023-03-15T05:28:22;93956.00;;;7.80
15575;BMP180;7888;46.748;8.102;2023-03-15T05:30:50;93988.00;;;7.80
15575;BMP180;7888;46.748;8.102;2023-03-15T05:33:17;93973.00;;;7.80
15575;BMP180;7888;46.748;8.102;2023-03-15T05:35:43;93994.00;;;7.80
15575;BMP180;7888;46.748;8.102;2023-03-15T05:38:11;93992.00;;;7.80
15575;BMP180;7888;46.748;8.102;2023-03-15T05:40:44;93987.00;;;7.80
15575;BMP180;7888;46.748;8.102;2023-03-15T05:43:11;94003.00;;;7.70
15575;BMP180;7888;46.748;8.102;2023-03-15T05:45:37;93999.00;;;7.70
15575;BMP180;7888;46.748;8.102;2023-03-15T05:48:04;94009.00;;;7.70
15575;BMP180;7888;46.748;8.102;2023-03-15T05:50:31;93996.00;;;7.70
15575;BMP180;7888;46.748;8.102;2023-03-15T05:52:58;94010.00;;;7.70
15575;BMP180;7888;46.748;8.102;2023-03-15T05:55:24;94021.00;;;7.70
15575;BMP180;7888;46.748;8.102;2023-03-15T05:57:50;94028.00;;;7.70
15575;BMP180;7888;46.748;8.102;2023-03-15T06:00:17;94028.00;;;7.70
15575;BMP180;7888;46.748;8.102;2023-03-15T06:02:44;94029.00;;;7.70
15575;BMP180;7888;46.748;8.102;2023-03-15T06:05:11;94034.00;;;7.60
15575;BMP180;7888;46.748;8.102;2023-03-15T06:07:37;94037.00;;;7.60
15575;BMP180;7888;46.748;8.102;2023-03-15T06:10:04;94035.00;;;7.60
15575;BMP180;7888;46.748;8.102;2023-03-15T06:12:30;94032.00;;;7.60
15575;BMP180;7888;46.748;8.102;2023-03-15T06:14:56;94029.00;;;7.60
15575;BMP180;7888;46.748;8.102;2023-03-15T06:17:22;94034.00;;;7.60
15575;BMP180;7888;46.748;8.102;2023-03-15T06:19:47;94039.00;;;7.60
15575;BMP180;7888;46.748;8.102;2023-03-15T06:22:13;94036.00;;;7.60
15575;BMP180;7888;46.748;8.102;2023-03-15T06:24:40;94034.00;;;7.50
15575;BMP180;7888;46.748;8.102;2023-03-15T06:27:06;94046.00;;;7.50
15575;BMP180;7888;46.748;8.102;2023-03-15T06:29:32;94039.00;;;7.50
15575;BMP180;7888;46.748;8.102;2023-03-15T06:31:58;94042.00;;;7.40
15575;BMP180;7888;46.748;8.102;2023-03-15T06:34:23;94049.00;;;7.50
15575;BMP180;7888;46.748;8.102;2023-03-15T06:36:49;94033.00;;;7.40
15575;BMP180;7888;46.748;8.102;2023-03-15T06:39:17;94041.00;;;7.50
15575;BMP180;7888;46.748;8.102;2023-03-15T06:41:43;94026.00;;;7.50
15575;BMP180;7888;46.748;8.102;2023-03-15T06:44:09;94069.00;;;7.60
15575;BMP180;7888;46.748;8.102;2023-03-15T06:46:36;94056.00;;;7.60
15575;BMP180;7888;46.748;8.102;2023-03-15T06:49:02;94067.00;;;7.60
15575;BMP180;7888;46.748;8.102;2023-03-15T06:51:28;94054.00;;;7.70
15575;BMP180;7888;46.748;8.102;2023-03-15T06:53:54;94076.00;;;7.70
15575;BMP180;7888;46.748;8.102;2023-03-15T06:56:21;94085.00;;;7.70
15575;BMP180;7888;46.748;8.102;2023-03-15T06:58:46;94065.00;;;7.70
15575;BMP180;7888;46.748;8.102;2023-03-15T07:01:13;94068.00;;;7.80
15575;BMP180;7888;46.748;8.102;2023-03-15T07:03:41;94091.00;;;7.80
15575;BMP180;7888;46.748;8.102;2023-03-15T07:06:07;94099.00;;;7.90
15575;BMP180;7888;46.748;8.102;2023-03-15T07:08:33;94105.00;;;8.00
15575;BMP180;7888;46.748;8.102;2023-03-15T07:10:59;94090.00;;;8.00
15575;BMP180;7888;46.748;8.102;2023-03-15T07:13:25;94111.00;;;8.10
15575;BMP180;7888;46.748;8.102;2023-03-15T07:15:55;94075.00;;;8.10
15575;BMP180;7888;46.748;8.102;2023-03-15T07:18:22;94101.00;;;8.20
15575;BMP180;7888;46.748;8.102;2023-03-15T07:20:57;94118.00;;;8.20
15575;BMP180;7888;46.748;8.102;2023-03-15T07:23:24;94114.00;;;8.40
15575;BMP180;7888;46.748;8.102;2023-03-15T07:25:50;94117.00;;;8.50
15575;BMP180;7888;46.748;8.102;2023-03-15T07:28:16;94098.00;;;8.50
15575;BMP180;7888;46.748;8.102;2023-03-15T07:30:41;94126.00;;;8.60
15575;BMP180;7888;46.748;8.102;2023-03-15T07:33:07;94132.00;;;8.70
15575;BMP180;7888;46.748;8.102;2023-03-15T07:35:33;94146.00;;;8.70
15575;BMP180;7888;46.748;8.102;2023-03-15T07:37:59;94133.00;;;8.80
15575;BMP180;7888;46.748;8.102;2023-03-15T07:40:24;94135.00;;;8.80
15575;BMP180;7888;46.748;8.102;2023-03-15T07:42:51;94155.00;;;8.90
15575;BMP180;7888;46.748;8.102;2023-03-15T07:45:17;94155.00;;;9.00
15575;BMP180;7888;46.748;8.102;2023-03-15T07:47:43;94147.00;;;9.00
15575;BMP180;7888;46.748;8.102;2023-03-15T07:50:09;94159.00;;;9.00
15575;BMP180;7888;46.748;8.102;2023-03-15T07:52:36;94137.00;;;9.00
15575;BMP180;7888;46.748;8.102;2023-03-15T07:55:02;94137.00;;;9.00
15575;BMP180;7888;46.748;8.102;2023-03-15T07:57:32;94147.00;;;9.00
15575;BMP180;7888;46.748;8.102;2023-03-15T07:59:58;94149.00;;;9.10
15575;BMP180;7888;46.748;8.102;2023-03-15T08:02:24;94150.00;;;9.10
15575;BMP180;7888;46.748;8.102;2023-03-15T08:04:50;94152.00;;;9.10
15575;BMP180;7888;46.748;8.102;2023-03-15T08:07:16;94173.00;;;9.10
15575;BMP180;7888;46.748;8.102;2023-03-15T08:09:42;94157.00;;;9.20
15575;BMP180;7888;46.748;8.102;2023-03-15T08:12:08;94143.00;;;9.30
15575;BMP180;7888;46.748;8.102;2023-03-15T08:14:34;94167.00;;;9.30
15575;BMP180;7888;46.748;8.102;2023-03-15T08:17:00;94165.00;;;9.40
15575;BMP180;7888;46.748;8.102;2023-03-15T08:19:26;94178.00;;;9.40
15575;BMP180;7888;46.748;8.102;2023-03-15T08:21:52;94171.00;;;9.40
15575;BMP180;7888;46.748;8.102;2023-03-15T08:24:19;94166.00;;;9.50
15575;BMP180;7888;46.748;8.102;2023-03-15T08:26:47;94163.00;;;9.50
15575;BMP180;7888;46.748;8.102;2023-03-15T08:29:13;94167.00;;;9.60
15575;BMP180;7888;46.748;8.102;2023-03-15T08:31:39;94156.00;;;9.60
15575;BMP180;7888;46.748;8.102;2023-03-15T08:34:06;94140.00;;;9.70
15575;BMP180;7888;46.748;8.102;2023-03-15T08:36:32;94147.00;;;9.70
15575;BMP180;7888;46.748;8.102;2023-03-15T08:38:58;94152.00;;;9.70
15575;BMP180;7888;46.748;8.102;2023-03-15T08:41:23;94131.00;;;9.80
15575;BMP180;7888;46.748;8.102;2023-03-15T08:43:49;94138.00;;;9.90
15575;BMP180;7888;46.748;8.102;2023-03-15T08:46:15;94143.00;;;10.00
15575;BMP180;7888;46.748;8.102;2023-03-15T08:48:42;94142.00;;;10.10
15575;BMP180;7888;46.748;8.102;2023-03-15T08:51:08;94147.00;;;10.10
15575;BMP180;7888;46.748;8.102;2023-03-15T08:53:34;94147.00;;;10.20
15575;BMP180;7888;46.748;8.102;2023-03-15T08:56:00;94142.00;;;10.20
15575;BMP180;7888;46.748;8.102;2023-03-15T08:58:26;94127.00;;;10.20
15575;BMP180;7888;46.748;8.102;2023-03-15T09:00:52;94133.00;;;10.30
15575;BMP180;7888;46.748;8.102;2023-03-15T09:03:19;94135.00;;;10.30
15575;BMP180;7888;46.748;8.102;2023-03-15T09:05:45;94141.00;;;10.30
15575;BMP180;7888;46.748;8.102;2023-03-15T09:08:10;94137.00;;;10.50
15575;BMP180;7888;46.748;8.102;2023-03-15T09:10:38;94135.00;;;10.50
15575;BMP180;7888;46.748;8.102;2023-03-15T09:13:04;94118.00;;;10.50
15575;BMP180;7888;46.748;8.102;2023-03-15T09:15:30;94130.00;;;10.60
15575;BMP180;7888;46.748;8.102;2023-03-15T09:17:56;94141.00;;;10.70
15575;BMP180;7888;46.748;8.102;2023-03-15T09:20:22;94133.00;;;10.80
15575;BMP180;7888;46.748;8.102;2023-03-15T09:22:55;94130.00;;;10.90
15575;BMP180;7888;46.748;8.102;2023-03-15T09:25:23;94139.00;;;11.00
15575;BMP180;7888;46.748;8.102;2023-03-15T09:27:50;94125.00;;;11.00
15575;BMP180;7888;46.748;8.102;2023-03-15T09:30:16;94146.00;;;11.10
15575;BMP180;7888;46.748;8.102;2023-03-15T09:32:42;94142.00;;;11.10
15575;BMP180;7888;46.748;8.102;2023-03-15T09:35:17;94152.00;;;11.10
15575;BMP180;7888;46.748;8.102;2023-03-15T09:37:44;94142.00;;;11.20
15575;BMP180;7888;46.748;8.102;2023-03-15T09:40:27;94132.00;;;11.20
15575;BMP180;7888;46.748;8.102;2023-03-15T09:48:58;94155.00;;;11.30
15575;BMP180;7888;46.748;8.102;2023-03-15T09:54:23;94134.00;;;11.40
15575;BMP180;7888;46.748;8.102;2023-03-15T09:57:11;94163.00;;;11.50
15575;BMP180;7888;46.748;8.102;2023-03-15T09:59:45;94166.00;;;11.60
15575;BMP180;7888;46.748;8.102;2023-03-15T10:02:29;94168.00;;;11.60
15575;BMP180;7888;46.748;8.102;2023-03-15T10:05:22;94156.00;;;11.70
15575;BMP180;7888;46.748;8.102;2023-03-15T10:07:50;94137.00;;;11.90
15575;BMP180;7888;46.748;8.102;2023-03-15T10:10:23;94156.00;;;11.80
15575;BMP180;7888;46.748;8.102;2023-03-15T10:16:22;94172.00;;;11.90
15575;BMP180;7888;46.748;8.102;2023-03-15T10:19:24;94167.00;;;12.00
15575;BMP180;7888;46.748;8.102;2023-03-15T10:25:16;94169.00;;;11.90
15575;BMP180;7888;46.748;8.102;2023-03-15T10:27:53;94170.00;;;11.90
15575;BMP180;7888;46.748;8.102;2023-03-15T10:30:29;94150.00;;;11.90
15575;BMP180;7888;46.748;8.102;2023-03-15T10:33:07;94130.00;;;12.00
15575;BMP180;7888;46.748;8.102;2023-03-15T10:35:39;94163.00;;;12.10
15575;BMP180;7888;46.748;8.102;2023-03-15T10:38:20;94154.00;;;12.10
15575;BMP180;7888;46.748;8.102;2023-03-15T10:40:57;94156.00;;;12.20
15575;BMP180;7888;46.748;8.102;2023-03-15T10:43:27;94144.00;;;12.30
15575;BMP180;7888;46.748;8.102;2023-03-15T10:46:21;94153.00;;;12.30
15575;BMP180;7888;46.748;8.102;2023-03-15T10:49:14;94153.00;;;12.40
15575;BMP180;7888;46.748;8.102;2023-03-15T10:51:42;94148.00;;;12.50
15575;BMP180;7888;46.748;8.102;2023-03-15T10:54:26;94145.00;;;12.60
15575;BMP180;7888;46.748;8.102;2023-03-15T10:57:03;94161.00;;;12.70
15575;BMP180;7888;46.748;8.102;2023-03-15T10:59:34;94150.00;;;12.70
15575;BMP180;7888;46.748;8.102;2023-03-15T11:02:22;94147.00;;;12.80
15575;BMP180;7888;46.748;8.102;2023-03-15T11:04:58;94150.00;;;13.00
15575;BMP180;7888;46.748;8.102;2023-03-15T11:07:26;94153.00;;;13.00
15575;BMP180;7888;46.748;8.102;2023-03-15T11:09:59;94156.00;;;13.00
15575;BMP180;7888;46.748;8.102;2023-03-15T11:12:31;94151.00;;;13.10
15575;BMP180;7888;46.748;8.102;2023-03-15T11:15:11;94150.00;;;13.10
15575;BMP180;7888;46.748;8.102;2023-03-15T11:17:47;94153.00;;;13.20
15575;BMP180;7888;46.748;8.102;2023-03-15T11:20:37;94148.00;;;13.20
15575;BMP180;7888;46.748;8.102;2023-03-15T11:23:38;94146.00;;;13.30
15575;BMP180;7888;46.748;8.102;2023-03-15T11:26:12;94147.00;;;13.40
15575;BMP180;7888;46.748;8.102;2023-03-15T11:28:50;94139.00;;;13.40
15575;BMP180;7888;46.748;8.102;2023-03-15T11:31:19;94120.00;;;13.40
15575;BMP180;7888;46.748;8.102;2023-03-15T11:34:01;94135.00;;;13.40
15575;BMP180;7888;46.748;8.102;2023-03-15T11:36:33;94133.00;;;13.40
15575;BMP180;7888;46.748;8.102;2023-03-15T11:39:02;94123.00;;;13.50
15575;BMP180;7888;46.748;8.102;2023-03-15T11:41:44;94126.00;;;13.50
15575;BMP180;7888;46.748;8.102;2023-03-15T11:44:34;94100.00;;;13.50
15575;BMP180;7888;46.748;8.102;2023-03-15T11:48:02;94110.00;;;13.60
15575;BMP180;7888;46.748;8.102;2023-03-15T11:50:14;94114.00;;;13.60
15575;BMP180;7888;46.748;8.102;2023-03-15T11:52:40;94109.00;;;13.90
15575;BMP180;7888;46.748;8.102;2023-03-15T11:55:32;94096.00;;;13.90
15575;BMP180;7888;46.748;8.102;2023-03-15T11:58:31;94096.00;;;14.00
15575;BMP180;7888;46.748;8.102;2023-03-15T12:01:05;94099.00;;;14.20
15575;BMP180;7888;46.748;8.102;2023-03-15T12:03:43;94101.00;;;14.40
15575;BMP180;7888;46.748;8.102;2023-03-15T12:08:49;94097.00;;;14.80
15575;BMP180;7888;46.748;8.102;2023-03-15T12:16:28;94073.00;;;14.80
15575;BMP180;7888;46.748;8.102;2023-03-15T12:19:00;94090.00;;;14.90
15575;BMP180;7888;46.748;8.102;2023-03-15T12:21:49;94062.00;;;14.90
15575;BMP180;7888;46.748;8.102;2023-03-15T12:24:27;94079.00;;;14.90
15575;BMP180;7888;46.748;8.102;2023-03-15T12:27:21;94064.00;;;14.90
15575;BMP180;7888;46.748;8.102;2023-03-15T12:29:57;94067.00;;;15.10
15575;BMP180;7888;46.748;8.102;2023-03-15T12:32:25;94065.00;;;15.20
15575;BMP180;7888;46.748;8.102;2023-03-15T12:34:56;94060.00;;;15.20
15575;BMP180;7888;46.748;8.102;2023-03-15T12:37:41;94059.00;;;15.30
15575;BMP180;7888;46.748;8.102;2023-03-15T12:56:35;94048.00;;;16.10
15575;BMP180;7888;46.748;8.102;2023-03-15T12:59:19;94053.00;;;16.30
15575;BMP180;7888;46.748;8.102;2023-03-15T13:01:50;94064.00;;;16.50
15575;BMP180;7888;46.748;8.102;2023-03-15T13:04:16;94037.00;;;16.80
15575;BMP180;7888;46.748;8.102;2023-03-15T13:06:57;94062.00;;;16.80
15575;BMP180;7888;46.748;8.102;2023-03-15T13:10:00;94048.00;;;17.20
15575;BMP180;7888;46.748;8.102;2023-03-15T13:13:18;94060.00;;;17.40
15575;BMP180;7888;46.748;8.102;2023-03-15T13:41:04;94055.00;;;18.60
15575;BMP180;7888;46.748;8.102;2023-03-15T13:43:37;94034.00;;;18.50
15575;BMP180;7888;46.748;8.102;2023-03-15T13:46:04;94035.00;;;18.50
15575;BMP180;7888;46.748;8.102;2023-03-15T13:48:34;94045.00;;;18.40
15575;BMP180;7888;46.748;8.102;2023-03-15T13:51:23;94044.00;;;18.30
15575;BMP180;7888;46.748;8.102;2023-03-15T13:53:55;94045.00;;;18.30
15575;BMP180;7888;46.748;8.102;2023-03-15T13:56:33;94039.00;;;18.20
15575;BMP180;7888;46.748;8.102;2023-03-15T13:59:02;94049.00;;;18.10
15575;BMP180;7888;46.748;8.102;2023-03-15T14:01:30;94048.00;;;18.00
15575;BMP180;7888;46.748;8.102;2023-03-15T14:04:07;94044.00;;;17.80
15575;BMP180;7888;46.748;8.102;2023-03-15T14:06:34;94045.00;;;17.70
15575;BMP180;7888;46.748;8.102;2023-03-15T14:09:18;94050.00;;;17.70
15575;BMP180;7888;46.748;8.102;2023-03-15T14:11:44;94047.00;;;17.80
15575;BMP180;7888;46.748;8.102;2023-03-15T14:14:22;94042.00;;;17.80
15575;BMP180;7888;46.748;8.102;2023-03-15T14:16:50;94048.00;;;17.90
15575;BMP180;7888;46.748;8.102;2023-03-15T14:21:56;94055.00;;;17.80
15575;BMP180;7888;46.748;8.102;2023-03-15T14:24:38;94040.00;;;17.80
15575;BMP180;7888;46.748;8.102;2023-03-15T14:27:19;94052.00;;;17.80
15575;BMP180;7888;46.748;8.102;2023-03-15T14:29:58;94044.00;;;17.70
15575;BMP180;7888;46.748;8.102;2023-03-15T14:32:36;94054.00;;;17.70
15575;BMP180;7888;46.748;8.102;2023-03-15T14:37:46;94056.00;;;17.70
15575;BMP180;7888;46.748;8.102;2023-03-15T14:42:44;94056.00;;;17.70
15575;BMP180;7888;46.748;8.102;2023-03-15T14:45:11;94046.00;;;17.80
15575;BMP180;7888;46.748;8.102;2023-03-15T14:47:44;94053.00;;;17.90
15575;BMP180;7888;46.748;8.102;2023-03-15T14:50:20;94017.00;;;18.00
15575;BMP180;7888;46.748;8.102;2023-03-15T14:52:49;94051.00;;;18.20
15575;BMP180;7888;46.748;8.102;2023-03-15T14:55:20;94058.00;;;18.20
15575;BMP180;7888;46.748;8.102;2023-03-15T14:57:47;94044.00;;;18.30
15575;BMP180;7888;46.748;8.102;2023-03-15T15:00:16;94052.00;;;18.40
15575;BMP180;7888;46.748;8.102;2023-03-15T15:02:44;94052.00;;;18.40
15575;BMP180;7888;46.748;8.102;2023-03-15T15:05:26;94060.00;;;18.40
15575;BMP180;7888;46.748;8.102;2023-03-15T15:08:01;94057.00;;;18.60
15575;BMP180;7888;46.748;8.102;2023-03-15T15:10:27;94065.00;;;18.70
15575;BMP180;7888;46.748;8.102;2023-03-15T15:12:53;94060.00;;;18.80
15575;BMP180;7888;46.748;8.102;2023-03-15T15:15:21;94070.00;;;18.80
15575;BMP180;7888;46.748;8.102;2023-03-15T15:17:47;94053.00;;;18.80
15575;BMP180;7888;46.748;8.102;2023-03-15T15:20:14;94074.00;;;19.00
15575;BMP180;7888;46.748;8.102;2023-03-15T15:22:44;94078.00;;;19.00
15575;BMP180;7888;46.748;8.102;2023-03-15T15:25:20;94064.00;;;19.10
15575;BMP180;7888;46.748;8.102;2023-03-15T15:27:47;94069.00;;;19.20
15575;BMP180;7888;46.748;8.102;2023-03-15T15:30:24;94057.00;;;19.20
15575;BMP180;7888;46.748;8.102;2023-03-15T15:32:50;94054.00;;;19.20
15575;BMP180;7888;46.748;8.102;2023-03-15T15:35:19;94059.00;;;19.30
15575;BMP180;7888;46.748;8.102;2023-03-15T15:37:48;94052.00;;;19.30
15575;BMP180;7888;46.748;8.102;2023-03-15T15:40:26;94046.00;;;19.30
15575;BMP180;7888;46.748;8.102;2023-03-15T15:42:52;94055.00;;;19.40
15575;BMP180;7888;46.748;8.102;2023-03-15T15:45:19;94064.00;;;19.40
15575;BMP180;7888;46.748;8.102;2023-03-15T15:47:45;94068.00;;;19.50
15575;BMP180;7888;46.748;8.102;2023-03-15T15:50:17;94068.00;;;19.40
15575;BMP180;7888;46.748;8.102;2023-03-15T15:52:50;94066.00;;;19.40
15575;BMP180;7888;46.748;8.102;2023-03-15T15:55:25;94067.00;;;19.50
15575;BMP180;7888;46.748;8.102;2023-03-15T15:57:53;94061.00;;;19.50
15575;BMP180;7888;46.748;8.102;2023-03-15T16:00:24;94059.00;;;19.50
15575;BMP180;7888;46.748;8.102;2023-03-15T16:02:52;94078.00;;;19.60
15575;BMP180;7888;46.748;8.102;2023-03-15T16:05:28;94084.00;;;19.40